Casstown, OH

7:18 PM EST on February 06, 2016 (GMT -0500)
Concord Township Troy | | Change Station
CLOSE
Current Station
Personal Weather Station
Location: Troy, OH
Elevation: 840 ft
Nearby Weather Stations

Elev 840 ft 40.01 °N, 84.21 °W | Updated 13 minutes ago

Partly Cloudy
Partly Cloudy
33.0 °F
Feels Like 33 °F
N
0.0
Wind Variable Wind from West
Gusts 0.0 mph

Today
High -- | Low -- °F
--% Chance of Precip.
Yesterday
High -- | Low -- °F
Precip. -- in
Pressure 30.27 in
Visibility 10.0 miles
Clouds Clear
Windchill 33 °F
Dew Point 23 °F
Humidity 68%
Rainfall 0.00 in
Snow Depth Not available.
7:40 AM 6:01 PM
Waning Crescent, 3% visible
METAR KDAY 062356Z 23005KT 10SM CLR 01/M06 A3024 RMK AO2 SLP250 T00111056 10056 20011 58002
Pressure 30.27 in
Visibility 10.0 miles
Clouds Clear
Windchill 33 °F
Dew Point 23 °F
Humidity 68%
Rainfall 0.00 in
Snow Depth Not available.
7:40 AM 6:01 PM
Waning Crescent, 3% visible
METAR KDAY 062356Z 23005KT 10SM CLR 01/M06 A3024 RMK AO2 SLP250 T00111056 10056 20011 58002

10-Day Weather Forecast

Almanac

Astronomy

Feb. 06, 2016 Rise Set
Actual Time
Civil Twilight
Nautical Twilight
Astronomical Twilight
Moon
Length of Visible Light
Length of Day
Tomorrow will be .
, % of the Moon is Illuminated

Today's Extremes

State Highs State Lows

Community

WunderPhotos

Upload Photos

1,891,105 photos uploaded!

WunderBlog® & News

Nearby

Air Quality

  Air Quality AQ Index Pollutant
Not available.

Snow Depth

Station Depth Elevation

Earthquake Activity

City Distance Mag. Time & Date
Minimum magnitude displayed is 2.5.

Coastal Water Temperatures

Place Temperature

Stations

Nearby Weather Stations

Station Location Temp. Windchill Dew Point Humidity Wind Precip. Elev Updated Type
                   

Watches & Warnings

There are currently no watches in effect.